Aviation Digital Data Service (ADDS)

Output produced by METARs form (0331 UTC 20 March 2019)
found at http://www.aviationweather.gov/metar/data/
 
METAR text: ENBR 200250Z 24007KT 210V270 9999 FEW006 SCT025 06/05 Q1015 RMK WIND 1200FT 26015KT
Conditions at: ENBR (BERGEN/FLESLAND , NO) observed 0250 UTC 20 March 2019
Temperature: 6.0°C (43°F)
Dewpoint: 5.0°C (41°F) [RH = 93%]
Pressure (altimeter): 29.97 inches Hg (1015.0 mb)
Winds: from the WSW (240 degrees) at 8 MPH (7 knots; 3.6 m/s)
Visibility: 6 or more miles (10+ km)
Ceiling: at least 12,000 feet AGL
Clouds: few clouds at 600 feet AGL
scattered clouds at 2500 feet AGL
Weather: no significant weather observed at this time

METAR text: ENBR 200150Z VRB02KT 9999 FEW008 SCT030 06/05 Q1015 RMK WIND 1200FT 28016KT
Conditions at: ENBR (BERGEN/FLESLAND , NO) observed 0150 UTC 20 March 2019
Temperature: 6.0°C (43°F)
Dewpoint: 5.0°C (41°F) [RH = 93%]
Pressure (altimeter): 29.97 inches Hg (1015.0 mb)
Winds: variable direction winds at 2 MPH (2 knots; 1.0 m/s)
Visibility: 6 or more miles (10+ km)
Ceiling: at least 12,000 feet AGL
Clouds: few clouds at 800 feet AGL
scattered clouds at 3000 feet AGL
Weather: no significant weather observed at this time

METAR text: ENBR 200050Z 28006KT 210V320 9999 -RA FEW006 BKN035 07/05 Q1015 RMK WIND 1200FT 28018KT
Conditions at: ENBR (BERGEN/FLESLAND , NO) observed 0050 UTC 20 March 2019
Temperature: 7.0°C (45°F)
Dewpoint: 5.0°C (41°F) [RH = 87%]
Pressure (altimeter): 29.97 inches Hg (1015.0 mb)
Winds: from the W (280 degrees) at 7 MPH (6 knots; 3.1 m/s)
Visibility: 6 or more miles (10+ km)
Ceiling: 3500 feet AGL
Clouds: few clouds at 600 feet AGL
broken clouds at 3500 feet AGL
Weather: -RA  (light rain)

METAR text: ENBR 192350Z 20016KT 2500 RA BR FEW002 BKN005 06/06 Q1014 RMK WIND 1200FT 23020G31KT
Conditions at: ENBR (BERGEN/FLESLAND , NO) observed 2350 UTC 19 March 2019
Temperature: 6.0°C (43°F)
Dewpoint: 6.0°C (43°F) [RH = 100%]
Pressure (altimeter): 29.94 inches Hg (1014.0 mb)
Winds: from the SSW (200 degrees) at 18 MPH (16 knots; 8.2 m/s)
Visibility: 1.55 miles (2.49 km)
Ceiling: 500 feet AGL
Clouds: few clouds at 200 feet AGL
broken clouds at 500 feet AGL
Weather: RA BR  (moderate rain, mist)

METAR text: ENBR 192220Z 17018KT 5000 RA BR FEW003 BKN006 05/04 Q1014 RMK WIND 1200FT 18024G38KT
Conditions at: ENBR (BERGEN/FLESLAND , NO) observed 2220 UTC 19 March 2019
Temperature: 5.0°C (41°F)
Dewpoint: 4.0°C (39°F) [RH = 93%]
Pressure (altimeter): 29.94 inches Hg (1014.0 mb)
Winds: from the S (170 degrees) at 21 MPH (18 knots; 9.3 m/s)
Visibility: 3 miles ( 5 km)
Ceiling: 600 feet AGL
Clouds: few clouds at 300 feet AGL
broken clouds at 600 feet AGL
Weather: RA BR  (moderate rain, mist)

METAR text: ENBR 192150Z 16018KT 9000 RA FEW004 BKN008 05/04 Q1014 RMK WIND 1200FT 17024G38KT
Conditions at: ENBR (BERGEN/FLESLAND , NO) observed 2150 UTC 19 March 2019
Temperature: 5.0°C (41°F)
Dewpoint: 4.0°C (39°F) [RH = 93%]
Pressure (altimeter): 29.94 inches Hg (1014.0 mb)
Winds: from the SSE (160 degrees) at 21 MPH (18 knots; 9.3 m/s)
Visibility: 6 miles ( 9 km)
Ceiling: 800 feet AGL
Clouds: few clouds at 400 feet AGL
broken clouds at 800 feet AGL
Weather: RA  (moderate rain)

METAR text: ENBR 192120Z 17023KT 9999 RA FEW005 BKN008 05/04 Q1015 RMK WIND 1200FT 17025KT
Conditions at: ENBR (BERGEN/FLESLAND , NO) observed 2120 UTC 19 March 2019
Temperature: 5.0°C (41°F)
Dewpoint: 4.0°C (39°F) [RH = 93%]
Pressure (altimeter): 29.97 inches Hg (1015.0 mb)
Winds: from the S (170 degrees) at 26 MPH (23 knots; 11.8 m/s)
Visibility: 6 or more miles (10+ km)
Ceiling: 800 feet AGL
Clouds: few clouds at 500 feet AGL
broken clouds at 800 feet AGL
Weather: RA  (moderate rain)

METAR text: ENBR 192050Z 16022KT 9000 RA FEW006 BKN010 05/04 Q1015 RMK WIND 1200FT 16027KT
Conditions at: ENBR (BERGEN/FLESLAND , NO) observed 2050 UTC 19 March 2019
Temperature: 5.0°C (41°F)
Dewpoint: 4.0°C (39°F) [RH = 93%]
Pressure (altimeter): 29.97 inches Hg (1015.0 mb)
Winds: from the SSE (160 degrees) at 25 MPH (22 knots; 11.3 m/s)
Visibility: 6 miles ( 9 km)
Ceiling: 1000 feet AGL
Clouds: few clouds at 600 feet AGL
broken clouds at 1000 feet AGL
Weather: RA  (moderate rain)

METAR text: ENBR 192020Z 16022KT 8000 RA FEW005 BKN010 05/03 Q1016 BECMG 3000 DZRA BKN004 RMK WIND 1200FT 16028KT
Conditions at: ENBR (BERGEN/FLESLAND , NO) observed 2020 UTC 19 March 2019
Temperature: 5.0°C (41°F)
Dewpoint: 3.0°C (37°F) [RH = 87%]
Pressure (altimeter): 30.00 inches Hg (1016.0 mb)
Winds: from the SSE (160 degrees) at 25 MPH (22 knots; 11.3 m/s)
Visibility: 5 miles ( 8 km)
Ceiling: 1000 feet AGL
Clouds: few clouds at 500 feet AGL
broken clouds at 1000 feet AGL
Weather: RA  (moderate rain)

METAR text: ENBR 191950Z 16021KT 8000 RADZ SCT005 BKN014 04/03 Q1016 TEMPO 4000 -DZRA BKN008 RMK WIND 1200FT 16029G40KT
Conditions at: ENBR (BERGEN/FLESLAND , NO) observed 1950 UTC 19 March 2019
Temperature: 4.0°C (39°F)
Dewpoint: 3.0°C (37°F) [RH = 93%]
Pressure (altimeter): 30.00 inches Hg (1016.0 mb)
Winds: from the SSE (160 degrees) at 24 MPH (21 knots; 10.8 m/s)
Visibility: 5 miles ( 8 km)
Ceiling: 1400 feet AGL
Clouds: scattered clouds at 500 feet AGL
broken clouds at 1400 feet AGL
Weather: RA DZ  (moderate rain, moderate drizzle)

METAR text: ENBR 191920Z 17024KT 9999 RA FEW008 BKN019 05/02 Q1016 TEMPO 4000 -DZRA BKN008 RMK WIND 1200FT 16032KT
Conditions at: ENBR (BERGEN/FLESLAND , NO) observed 1920 UTC 19 March 2019
Temperature: 5.0°C (41°F)
Dewpoint: 2.0°C (36°F) [RH = 81%]
Pressure (altimeter): 30.00 inches Hg (1016.0 mb)
Winds: from the S (170 degrees) at 28 MPH (24 knots; 12.3 m/s)
Visibility: 6 or more miles (10+ km)
Ceiling: 1900 feet AGL
Clouds: few clouds at 800 feet AGL
broken clouds at 1900 feet AGL
Weather: RA  (moderate rain)

METAR text: ENBR 191850Z 16022KT 9999 -RA BKN021 05/02 Q1016 TEMPO BKN012 RMK WIND 1200FT 16031KT
Conditions at: ENBR (BERGEN/FLESLAND , NO) observed 1850 UTC 19 March 2019
Temperature: 5.0°C (41°F)
Dewpoint: 2.0°C (36°F) [RH = 81%]
Pressure (altimeter): 30.00 inches Hg (1016.0 mb)
Winds: from the SSE (160 degrees) at 25 MPH (22 knots; 11.3 m/s)
Visibility: 6 or more miles (10+ km)
Ceiling: 2100 feet AGL
Clouds: broken clouds at 2100 feet AGL
Weather: -RA  (light rain)

METAR text: ENBR 191820Z 16018KT 9999 BKN024 05/01 Q1017 NOSIG RMK WIND 1200FT 15029KT
Conditions at: ENBR (BERGEN/FLESLAND , NO) observed 1820 UTC 19 March 2019
Temperature: 5.0°C (41°F)
Dewpoint: 1.0°C (34°F) [RH = 75%]
Pressure (altimeter): 30.03 inches Hg (1017.0 mb)
Winds: from the SSE (160 degrees) at 21 MPH (18 knots; 9.3 m/s)
Visibility: 6 or more miles (10+ km)
Ceiling: 2400 feet AGL
Clouds: broken clouds at 2400 feet AGL
Weather: no significant weather observed at this time

METAR text: ENBR 191750Z 16016KT 9999 BKN024 05/00 Q1017 NOSIG RMK WIND 1200FT 16027KT
Conditions at: ENBR (BERGEN/FLESLAND , NO) observed 1750 UTC 19 March 2019
Temperature: 5.0°C (41°F)
Dewpoint: 0.0°C (32°F) [RH = 70%]
Pressure (altimeter): 30.03 inches Hg (1017.0 mb)
Winds: from the SSE (160 degrees) at 18 MPH (16 knots; 8.2 m/s)
Visibility: 6 or more miles (10+ km)
Ceiling: 2400 feet AGL
Clouds: broken clouds at 2400 feet AGL
Weather: no significant weather observed at this time

METAR text: ENBR 191720Z 16017KT 9999 FEW020 BKN025 05/00 Q1018 BECMG BKN014 RMK WIND 1200FT 15025KT
Conditions at: ENBR (BERGEN/FLESLAND , NO) observed 1720 UTC 19 March 2019
Temperature: 5.0°C (41°F)
Dewpoint: 0.0°C (32°F) [RH = 70%]
Pressure (altimeter): 30.06 inches Hg (1018.0 mb)
Winds: from the SSE (160 degrees) at 20 MPH (17 knots; 8.7 m/s)
Visibility: 6 or more miles (10+ km)
Ceiling: 2500 feet AGL
Clouds: few clouds at 2000 feet AGL
broken clouds at 2500 feet AGL
Weather: no significant weather observed at this time

METAR text: ENBR 191650Z 16017KT 9999 -RA FEW018 BKN025 05/01 Q1018 BECMG BKN014 RMK WIND 1200FT 15023KT
Conditions at: ENBR (BERGEN/FLESLAND , NO) observed 1650 UTC 19 March 2019
Temperature: 5.0°C (41°F)
Dewpoint: 1.0°C (34°F) [RH = 75%]
Pressure (altimeter): 30.06 inches Hg (1018.0 mb)
Winds: from the SSE (160 degrees) at 20 MPH (17 knots; 8.7 m/s)
Visibility: 6 or more miles (10+ km)
Ceiling: 2500 feet AGL
Clouds: few clouds at 1800 feet AGL
broken clouds at 2500 feet AGL
Weather: -RA  (light rain)

METAR text: ENBR 191620Z 17018KT 9999 -RA FEW015 BKN025 05/01 Q1018 BECMG BKN014 RMK WIND 1200FT 16026G38KT
Conditions at: ENBR (BERGEN/FLESLAND , NO) observed 1620 UTC 19 March 2019
Temperature: 5.0°C (41°F)
Dewpoint: 1.0°C (34°F) [RH = 75%]
Pressure (altimeter): 30.06 inches Hg (1018.0 mb)
Winds: from the S (170 degrees) at 21 MPH (18 knots; 9.3 m/s)
Visibility: 6 or more miles (10+ km)
Ceiling: 2500 feet AGL
Clouds: few clouds at 1500 feet AGL
broken clouds at 2500 feet AGL
Weather: -RA  (light rain)

METAR text: ENBR 191550Z 16019KT 9999 -RA SCT016 BKN025 06/M00 Q1018 BECMG BKN014 RMK WIND 1200FT 15026KT
Conditions at: ENBR (BERGEN/FLESLAND , NO) observed 1550 UTC 19 March 2019
Temperature: 6.0°C (43°F)
Dewpoint: 0.0°C (32°F) [RH = 65%]
Pressure (altimeter): 30.06 inches Hg (1018.0 mb)
Winds: from the SSE (160 degrees) at 22 MPH (19 knots; 9.8 m/s)
Visibility: 6 or more miles (10+ km)
Ceiling: 2500 feet AGL
Clouds: scattered clouds at 1600 feet AGL
broken clouds at 2500 feet AGL
Weather: -RA  (light rain)

METAR text: ENBR 191520Z 16020KT 9999 VCSH FEW020 BKN035 06/M01 Q1018 RMK WIND 1200FT 15025KT
Conditions at: ENBR (BERGEN/FLESLAND , NO) observed 1520 UTC 19 March 2019
Temperature: 6.0°C (43°F)
Dewpoint: -1.0°C (30°F) [RH = 61%]
Pressure (altimeter): 30.06 inches Hg (1018.0 mb)
Winds: from the SSE (160 degrees) at 23 MPH (20 knots; 10.3 m/s)
Visibility: 6 or more miles (10+ km)
Ceiling: 3500 feet AGL
Clouds: few clouds at 2000 feet AGL
broken clouds at 3500 feet AGL
Weather: VCSH  (showers in vicinity)

METAR text: ENBR 191450Z 16017KT 9999 BKN038 06/M01 Q1019 BECMG BKN014 RMK WIND 1200FT 15024KT
Conditions at: ENBR (BERGEN/FLESLAND , NO) observed 1450 UTC 19 March 2019
Temperature: 6.0°C (43°F)
Dewpoint: -1.0°C (30°F) [RH = 61%]
Pressure (altimeter): 30.09 inches Hg (1019.0 mb)
Winds: from the SSE (160 degrees) at 20 MPH (17 knots; 8.7 m/s)
Visibility: 6 or more miles (10+ km)
Ceiling: 3800 feet AGL
Clouds: broken clouds at 3800 feet AGL
Weather: no significant weather observed at this time

METAR text: ENBR 191420Z 16017KT 9999 BKN038 06/M01 Q1019 NOSIG RMK WIND 1200FT 15024KT
Conditions at: ENBR (BERGEN/FLESLAND , NO) observed 1420 UTC 19 March 2019
Temperature: 6.0°C (43°F)
Dewpoint: -1.0°C (30°F) [RH = 61%]
Pressure (altimeter): 30.09 inches Hg (1019.0 mb)
Winds: from the SSE (160 degrees) at 20 MPH (17 knots; 8.7 m/s)
Visibility: 6 or more miles (10+ km)
Ceiling: 3800 feet AGL
Clouds: broken clouds at 3800 feet AGL
Weather: no significant weather observed at this time

METAR text: ENBR 191350Z 17016KT 9999 FEW030 BKN040 06/M01 Q1020 BECMG 17020G30KT RMK WIND 1200FT 16022G32KT
Conditions at: ENBR (BERGEN/FLESLAND , NO) observed 1350 UTC 19 March 2019
Temperature: 6.0°C (43°F)
Dewpoint: -1.0°C (30°F) [RH = 61%]
Pressure (altimeter): 30.12 inches Hg (1020.0 mb)
Winds: from the S (170 degrees) at 18 MPH (16 knots; 8.2 m/s)
Visibility: 6 or more miles (10+ km)
Ceiling: 4000 feet AGL
Clouds: few clouds at 3000 feet AGL
broken clouds at 4000 feet AGL
Weather: no significant weather observed at this time

METAR text: ENBR 191320Z 17016KT 9999 SCT030 SCT120 06/M01 Q1020 BECMG 17020G30KT RMK WIND 1200FT 16020KT
Conditions at: ENBR (BERGEN/FLESLAND , NO) observed 1320 UTC 19 March 2019
Temperature: 6.0°C (43°F)
Dewpoint: -1.0°C (30°F) [RH = 61%]
Pressure (altimeter): 30.12 inches Hg (1020.0 mb)
Winds: from the S (170 degrees) at 18 MPH (16 knots; 8.2 m/s)
Visibility: 6 or more miles (10+ km)
Ceiling: at least 12,000 feet AGL
Clouds: scattered clouds at 3000 feet AGL
scattered clouds at 12000 feet AGL
Weather: no significant weather observed at this time

METAR text: ENBR 191250Z 17017KT 9999 SCT030 SCT180 06/M02 Q1020 TEMPO 16020G30KT RMK WIND 1200FT 15021KT
Conditions at: ENBR (BERGEN/FLESLAND , NO) observed 1250 UTC 19 March 2019
Temperature: 6.0°C (43°F)
Dewpoint: -2.0°C (28°F) [RH = 56%]
Pressure (altimeter): 30.12 inches Hg (1020.0 mb)
Winds: from the S (170 degrees) at 20 MPH (17 knots; 8.7 m/s)
Visibility: 6 or more miles (10+ km)
Ceiling: at least 12,000 feet AGL
Clouds: scattered clouds at 3000 feet AGL
scattered clouds at 18000 feet AGL
Weather: no significant weather observed at this time

METAR text: ENBR 191220Z 17015KT 9999 BKN032 06/M01 Q1020 TEMPO 16018G28KT RMK WIND 1200FT 15021KT
Conditions at: ENBR (BERGEN/FLESLAND , NO) observed 1220 UTC 19 March 2019
Temperature: 6.0°C (43°F)
Dewpoint: -1.0°C (30°F) [RH = 61%]
Pressure (altimeter): 30.12 inches Hg (1020.0 mb)
Winds: from the S (170 degrees) at 17 MPH (15 knots; 7.7 m/s)
Visibility: 6 or more miles (10+ km)
Ceiling: 3200 feet AGL
Clouds: broken clouds at 3200 feet AGL
Weather: no significant weather observed at this time

METAR text: ENBR 191150Z 17016KT 9999 BKN033 06/M02 Q1020 TEMPO 16020G30KT RMK WIND 1200FT 15019G29KT
Conditions at: ENBR (BERGEN/FLESLAND , NO) observed 1150 UTC 19 March 2019
Temperature: 6.0°C (43°F)
Dewpoint: -2.0°C (28°F) [RH = 56%]
Pressure (altimeter): 30.12 inches Hg (1020.0 mb)
Winds: from the S (170 degrees) at 18 MPH (16 knots; 8.2 m/s)
Visibility: 6 or more miles (10+ km)
Ceiling: 3300 feet AGL
Clouds: broken clouds at 3300 feet AGL
Weather: no significant weather observed at this time

METAR text: ENBR 191120Z 16014KT 9999 BKN034 05/M02 Q1020 NOSIG RMK WIND 1200FT 14019G27KT
Conditions at: ENBR (BERGEN/FLESLAND , NO) observed 1120 UTC 19 March 2019
Temperature: 5.0°C (41°F)
Dewpoint: -2.0°C (28°F) [RH = 60%]
Pressure (altimeter): 30.12 inches Hg (1020.0 mb)
Winds: from the SSE (160 degrees) at 16 MPH (14 knots; 7.2 m/s)
Visibility: 6 or more miles (10+ km)
Ceiling: 3400 feet AGL
Clouds: broken clouds at 3400 feet AGL
Weather: no significant weather observed at this time

METAR text: ENBR 191050Z 16011KT 9999 SCT030 SCT200 05/M02 Q1021 NOSIG RMK WIND 1200FT 14017KT
Conditions at: ENBR (BERGEN/FLESLAND , NO) observed 1050 UTC 19 March 2019
Temperature: 5.0°C (41°F)
Dewpoint: -2.0°C (28°F) [RH = 60%]
Pressure (altimeter): 30.15 inches Hg (1021.0 mb)
Winds: from the SSE (160 degrees) at 13 MPH (11 knots; 5.7 m/s)
Visibility: 6 or more miles (10+ km)
Ceiling: at least 12,000 feet AGL
Clouds: scattered clouds at 3000 feet AGL
scattered clouds at 20000 feet AGL
Weather: no significant weather observed at this time

METAR text: ENBR 191020Z 14010KT 9999 FEW030 SCT200 05/M02 Q1021 NOSIG RMK WIND 1200FT 14016KT
Conditions at: ENBR (BERGEN/FLESLAND , NO) observed 1020 UTC 19 March 2019
Temperature: 5.0°C (41°F)
Dewpoint: -2.0°C (28°F) [RH = 60%]
Pressure (altimeter): 30.15 inches Hg (1021.0 mb)
Winds: from the SE (140 degrees) at 12 MPH (10 knots; 5.1 m/s)
Visibility: 6 or more miles (10+ km)
Ceiling: at least 12,000 feet AGL
Clouds: few clouds at 3000 feet AGL
scattered clouds at 20000 feet AGL
Weather: no significant weather observed at this time

METAR text: ENBR 190950Z 14009KT 9999 FEW030 SCT200 04/M03 Q1021 NOSIG RMK WIND 1200FT 15014KT
Conditions at: ENBR (BERGEN/FLESLAND , NO) observed 0950 UTC 19 March 2019
Temperature: 4.0°C (39°F)
Dewpoint: -3.0°C (27°F) [RH = 60%]
Pressure (altimeter): 30.15 inches Hg (1021.0 mb)
Winds: from the SE (140 degrees) at 10 MPH (9 knots; 4.6 m/s)
Visibility: 6 or more miles (10+ km)
Ceiling: at least 12,000 feet AGL
Clouds: few clouds at 3000 feet AGL
scattered clouds at 20000 feet AGL
Weather: no significant weather observed at this time

METAR text: ENBR 190920Z 17007KT 9999 FEW030 04/M03 Q1021 NOSIG RMK WIND 1200FT 15012KT
Conditions at: ENBR (BERGEN/FLESLAND , NO) observed 0920 UTC 19 March 2019
Temperature: 4.0°C (39°F)
Dewpoint: -3.0°C (27°F) [RH = 60%]
Pressure (altimeter): 30.15 inches Hg (1021.0 mb)
Winds: from the S (170 degrees) at 8 MPH (7 knots; 3.6 m/s)
Visibility: 6 or more miles (10+ km)
Ceiling: at least 12,000 feet AGL
Clouds: few clouds at 3000 feet AGL
Weather: no significant weather observed at this time

METAR text: ENBR 190850Z 14007KT CAVOK 03/M04 Q1020 NOSIG RMK WIND 1200FT 15011KT
Conditions at: ENBR (BERGEN/FLESLAND , NO) observed 0850 UTC 19 March 2019
Temperature: 3.0°C (37°F)
Dewpoint: -4.0°C (25°F) [RH = 60%]
Pressure (altimeter): 30.12 inches Hg (1020.0 mb)
Winds: from the SE (140 degrees) at 8 MPH (7 knots; 3.6 m/s)
Visibility: 6 or more miles (10+ km)
Ceiling: ceiling and visibility are OK
Clouds: unknown
Weather: no significant weather observed at this time

METAR text: ENBR 190820Z 16003KT CAVOK 02/M03 Q1020 NOSIG RMK WIND 1200FT 15012KT
Conditions at: ENBR (BERGEN/FLESLAND , NO) observed 0820 UTC 19 March 2019
Temperature: 2.0°C (36°F)
Dewpoint: -3.0°C (27°F) [RH = 69%]
Pressure (altimeter): 30.12 inches Hg (1020.0 mb)
Winds: from the SSE (160 degrees) at 3 MPH (3 knots; 1.5 m/s)
Visibility: 6 or more miles (10+ km)
Ceiling: ceiling and visibility are OK
Clouds: unknown
Weather: no significant weather observed at this time

METAR text: ENBR 190750Z 18004KT CAVOK 01/M03 Q1020 NOSIG RMK WIND 1200FT 15009KT
Conditions at: ENBR (BERGEN/FLESLAND , NO) observed 0750 UTC 19 March 2019
Temperature: 1.0°C (34°F)
Dewpoint: -3.0°C (27°F) [RH = 75%]
Pressure (altimeter): 30.12 inches Hg (1020.0 mb)
Winds: from the S (180 degrees) at 5 MPH (4 knots; 2.1 m/s)
Visibility: 6 or more miles (10+ km)
Ceiling: ceiling and visibility are OK
Clouds: unknown
Weather: no significant weather observed at this time

METAR text: ENBR 190720Z 15003KT CAVOK 00/M03 Q1020 NOSIG RMK WIND 1200FT 15009KT
Conditions at: ENBR (BERGEN/FLESLAND , NO) observed 0720 UTC 19 March 2019
Temperature: 0.0°C (32°F)
Dewpoint: -3.0°C (27°F) [RH = 80%]
Pressure (altimeter): 30.12 inches Hg (1020.0 mb)
Winds: from the SSE (150 degrees) at 3 MPH (3 knots; 1.5 m/s)
Visibility: 6 or more miles (10+ km)
Ceiling: ceiling and visibility are OK
Clouds: unknown
Weather: no significant weather observed at this time

METAR text: ENBR 190650Z 14003KT CAVOK M01/M03 Q1020 NOSIG RMK WIND 1200FT 15007KT
Conditions at: ENBR (BERGEN/FLESLAND , NO) observed 0650 UTC 19 March 2019
Temperature: -1.0°C (30°F)
Dewpoint: -3.0°C (27°F) [RH = 86%]
Pressure (altimeter): 30.12 inches Hg (1020.0 mb)
Winds: from the SE (140 degrees) at 3 MPH (3 knots; 1.5 m/s)
Visibility: 6 or more miles (10+ km)
Ceiling: ceiling and visibility are OK
Clouds: unknown
Weather: no significant weather observed at this time

METAR text: ENBR 190620Z 11002KT CAVOK M02/M04 Q1020 NOSIG RMK WIND 1200FT 15007KT
Conditions at: ENBR (BERGEN/FLESLAND , NO) observed 0620 UTC 19 March 2019
Temperature: -2.0°C (28°F)
Dewpoint: -4.0°C (25°F) [RH = 86%]
Pressure (altimeter): 30.12 inches Hg (1020.0 mb)
Winds: from the ESE (110 degrees) at 2 MPH (2 knots; 1.0 m/s)
Visibility: 6 or more miles (10+ km)
Ceiling: ceiling and visibility are OK
Clouds: unknown
Weather: no significant weather observed at this time

METAR text: ENBR 190550Z 13003KT CAVOK M01/M03 Q1020 NOSIG RMK WIND 1200FT 14008KT
Conditions at: ENBR (BERGEN/FLESLAND , NO) observed 0550 UTC 19 March 2019
Temperature: -1.0°C (30°F)
Dewpoint: -3.0°C (27°F) [RH = 86%]
Pressure (altimeter): 30.12 inches Hg (1020.0 mb)
Winds: from the SE (130 degrees) at 3 MPH (3 knots; 1.5 m/s)
Visibility: 6 or more miles (10+ km)
Ceiling: ceiling and visibility are OK
Clouds: unknown
Weather: no significant weather observed at this time

METAR text: ENBR 190520Z 14003KT 9999 FEW040 M02/M03 Q1020 NOSIG RMK WIND 1200FT 14006KT
Conditions at: ENBR (BERGEN/FLESLAND , NO) observed 0520 UTC 19 March 2019
Temperature: -2.0°C (28°F)
Dewpoint: -3.0°C (27°F) [RH = 93%]
Pressure (altimeter): 30.12 inches Hg (1020.0 mb)
Winds: from the SE (140 degrees) at 3 MPH (3 knots; 1.5 m/s)
Visibility: 6 or more miles (10+ km)
Ceiling: at least 12,000 feet AGL
Clouds: few clouds at 4000 feet AGL
Weather: no significant weather observed at this time

METAR text: ENBR 190450Z 15003KT 9999 FEW040 M02/M03 Q1020 RMK WIND 1200FT 14005KT
Conditions at: ENBR (BERGEN/FLESLAND , NO) observed 0450 UTC 19 March 2019
Temperature: -2.0°C (28°F)
Dewpoint: -3.0°C (27°F) [RH = 93%]
Pressure (altimeter): 30.12 inches Hg (1020.0 mb)
Winds: from the SSE (150 degrees) at 3 MPH (3 knots; 1.5 m/s)
Visibility: 6 or more miles (10+ km)
Ceiling: at least 12,000 feet AGL
Clouds: few clouds at 4000 feet AGL
Weather: no significant weather observed at this time

METAR text: ENBR 190420Z VRB01KT 9999 FEW040 M01/M03 Q1020 RMK WIND 1200FT 13005KT
Conditions at: ENBR (BERGEN/FLESLAND , NO) observed 0420 UTC 19 March 2019
Temperature: -1.0°C (30°F)
Dewpoint: -3.0°C (27°F) [RH = 86%]
Pressure (altimeter): 30.12 inches Hg (1020.0 mb)
Winds: variable direction winds at 1 MPH (1 knots; 0.5 m/s)
Visibility: 6 or more miles (10+ km)
Ceiling: at least 12,000 feet AGL
Clouds: few clouds at 4000 feet AGL
Weather: no significant weather observed at this time

METAR text: ENBR 190350Z VRB02KT CAVOK M01/M02 Q1019 RMK WIND 1200FT VRB03KT
Conditions at: ENBR (BERGEN/FLESLAND , NO) observed 0350 UTC 19 March 2019
Temperature: -1.0°C (30°F)
Dewpoint: -2.0°C (28°F) [RH = 93%]
Pressure (altimeter): 30.09 inches Hg (1019.0 mb)
Winds: variable direction winds at 2 MPH (2 knots; 1.0 m/s)
Visibility: 6 or more miles (10+ km)
Ceiling: ceiling and visibility are OK
Clouds: unknown
Weather: no significant weather observed at this time

METAR text: ENBR 190250Z 08003KT CAVOK M01/M02 Q1019 RMK WIND 1200FT 36007KT
Conditions at: ENBR (BERGEN/FLESLAND , NO) observed 0250 UTC 19 March 2019
Temperature: -1.0°C (30°F)
Dewpoint: -2.0°C (28°F) [RH = 93%]
Pressure (altimeter): 30.09 inches Hg (1019.0 mb)
Winds: from the E (80 degrees) at 3 MPH (3 knots; 1.5 m/s)
Visibility: 6 or more miles (10+ km)
Ceiling: ceiling and visibility are OK
Clouds: unknown
Weather: no significant weather observed at this time

METAR text: ENBR 190150Z 01005KT CAVOK 00/M02 Q1019 RMK WIND 1200FT 34014KT
Conditions at: ENBR (BERGEN/FLESLAND , NO) observed 0150 UTC 19 March 2019
Temperature: 0.0°C (32°F)
Dewpoint: -2.0°C (28°F) [RH = 86%]
Pressure (altimeter): 30.09 inches Hg (1019.0 mb)
Winds: from the N (10 degrees) at 6 MPH (5 knots; 2.6 m/s)
Visibility: 6 or more miles (10+ km)
Ceiling: ceiling and visibility are OK
Clouds: unknown
Weather: no significant weather observed at this time

METAR text: ENBR 190050Z 02003KT CAVOK M00/M02 Q1019 RMK WIND 1200FT 33011KT
Conditions at: ENBR (BERGEN/FLESLAND , NO) observed 0050 UTC 19 March 2019
Temperature: 0.0°C (32°F)
Dewpoint: -2.0°C (28°F) [RH = 86%]
Pressure (altimeter): 30.09 inches Hg (1019.0 mb)
Winds: from the NNE (20 degrees) at 3 MPH (3 knots; 1.5 m/s)
Visibility: 6 or more miles (10+ km)
Ceiling: ceiling and visibility are OK
Clouds: unknown
Weather: no significant weather observed at this time

METAR text: ENBR 182350Z VRB02KT CAVOK M00/M03 Q1018 RMK WIND 1200FT 36007KT
Conditions at: ENBR (BERGEN/FLESLAND , NO) observed 2350 UTC 18 March 2019
Temperature: 0.0°C (32°F)
Dewpoint: -3.0°C (27°F) [RH = 80%]
Pressure (altimeter): 30.06 inches Hg (1018.0 mb)
Winds: variable direction winds at 2 MPH (2 knots; 1.0 m/s)
Visibility: 6 or more miles (10+ km)
Ceiling: ceiling and visibility are OK
Clouds: unknown
Weather: no significant weather observed at this time

METAR text: ENBR 182250Z VRB02KT CAVOK 00/M03 Q1018 RMK WIND 1200FT 34011KT
Conditions at: ENBR (BERGEN/FLESLAND , NO) observed 2250 UTC 18 March 2019
Temperature: 0.0°C (32°F)
Dewpoint: -3.0°C (27°F) [RH = 80%]
Pressure (altimeter): 30.06 inches Hg (1018.0 mb)
Winds: variable direction winds at 2 MPH (2 knots; 1.0 m/s)
Visibility: 6 or more miles (10+ km)
Ceiling: ceiling and visibility are OK
Clouds: unknown
Weather: no significant weather observed at this time

METAR text: ENBR 182220Z 03004KT CAVOK 02/M02 Q1017 RMK WIND 1200FT 34015KT
Conditions at: ENBR (BERGEN/FLESLAND , NO) observed 2220 UTC 18 March 2019
Temperature: 2.0°C (36°F)
Dewpoint: -2.0°C (28°F) [RH = 75%]
Pressure (altimeter): 30.03 inches Hg (1017.0 mb)
Winds: from the NNE (30 degrees) at 5 MPH (4 knots; 2.1 m/s)
Visibility: 6 or more miles (10+ km)
Ceiling: ceiling and visibility are OK
Clouds: unknown
Weather: no significant weather observed at this time

METAR text: ENBR 182150Z 01003KT CAVOK 02/M02 Q1017 RMK WIND 1200FT 34014KT
Conditions at: ENBR (BERGEN/FLESLAND , NO) observed 2150 UTC 18 March 2019
Temperature: 2.0°C (36°F)
Dewpoint: -2.0°C (28°F) [RH = 75%]
Pressure (altimeter): 30.03 inches Hg (1017.0 mb)
Winds: from the N (10 degrees) at 3 MPH (3 knots; 1.5 m/s)
Visibility: 6 or more miles (10+ km)
Ceiling: ceiling and visibility are OK
Clouds: unknown
Weather: no significant weather observed at this time

METAR text: ENBR 182120Z VRB02KT CAVOK 02/M03 Q1017 RMK WIND 1200FT 34016KT
Conditions at: ENBR (BERGEN/FLESLAND , NO) observed 2120 UTC 18 March 2019
Temperature: 2.0°C (36°F)
Dewpoint: -3.0°C (27°F) [RH = 69%]
Pressure (altimeter): 30.03 inches Hg (1017.0 mb)
Winds: variable direction winds at 2 MPH (2 knots; 1.0 m/s)
Visibility: 6 or more miles (10+ km)
Ceiling: ceiling and visibility are OK
Clouds: unknown
Weather: no significant weather observed at this time

METAR text: ENBR 182050Z 02003KT 340V090 CAVOK 03/M02 Q1017 RMK WIND 1200FT 35012KT
Conditions at: ENBR (BERGEN/FLESLAND , NO) observed 2050 UTC 18 March 2019
Temperature: 3.0°C (37°F)
Dewpoint: -2.0°C (28°F) [RH = 70%]
Pressure (altimeter): 30.03 inches Hg (1017.0 mb)
Winds: from the NNE (20 degrees) at 3 MPH (3 knots; 1.5 m/s)
Visibility: 6 or more miles (10+ km)
Ceiling: ceiling and visibility are OK
Clouds: unknown
Weather: no significant weather observed at this time

METAR text: ENBR 182020Z 35008KT CAVOK 03/M02 Q1016 NOSIG RMK WIND 1200FT 34016KT
Conditions at: ENBR (BERGEN/FLESLAND , NO) observed 2020 UTC 18 March 2019
Temperature: 3.0°C (37°F)
Dewpoint: -2.0°C (28°F) [RH = 70%]
Pressure (altimeter): 30.00 inches Hg (1016.0 mb)
Winds: from the N (350 degrees) at 9 MPH (8 knots; 4.1 m/s)
Visibility: 6 or more miles (10+ km)
Ceiling: ceiling and visibility are OK
Clouds: unknown
Weather: no significant weather observed at this time

METAR text: ENBR 181950Z 34010KT CAVOK 03/M03 Q1016 NOSIG RMK WIND 1200FT 34018KT
Conditions at: ENBR (BERGEN/FLESLAND , NO) observed 1950 UTC 18 March 2019
Temperature: 3.0°C (37°F)
Dewpoint: -3.0°C (27°F) [RH = 65%]
Pressure (altimeter): 30.00 inches Hg (1016.0 mb)
Winds: from the NNW (340 degrees) at 12 MPH (10 knots; 5.1 m/s)
Visibility: 6 or more miles (10+ km)
Ceiling: ceiling and visibility are OK
Clouds: unknown
Weather: no significant weather observed at this time

METAR text: ENBR 181920Z 34009KT 9999 FEW040 03/M03 Q1015 NOSIG RMK WIND 1200FT 35015KT
Conditions at: ENBR (BERGEN/FLESLAND , NO) observed 1920 UTC 18 March 2019
Temperature: 3.0°C (37°F)
Dewpoint: -3.0°C (27°F) [RH = 65%]
Pressure (altimeter): 29.97 inches Hg (1015.0 mb)
Winds: from the NNW (340 degrees) at 10 MPH (9 knots; 4.6 m/s)
Visibility: 6 or more miles (10+ km)
Ceiling: at least 12,000 feet AGL
Clouds: few clouds at 4000 feet AGL
Weather: no significant weather observed at this time

METAR text: ENBR 181850Z 35009KT 9999 FEW040 04/M02 Q1015 NOSIG RMK WIND 1200FT 34017KT
Conditions at: ENBR (BERGEN/FLESLAND , NO) observed 1850 UTC 18 March 2019
Temperature: 4.0°C (39°F)
Dewpoint: -2.0°C (28°F) [RH = 65%]
Pressure (altimeter): 29.97 inches Hg (1015.0 mb)
Winds: from the N (350 degrees) at 10 MPH (9 knots; 4.6 m/s)
Visibility: 6 or more miles (10+ km)
Ceiling: at least 12,000 feet AGL
Clouds: few clouds at 4000 feet AGL
Weather: no significant weather observed at this time

METAR text: ENBR 181820Z 34011KT 9999 FEW040 04/M01 Q1014 NOSIG RMK WIND 1200FT 34017KT
Conditions at: ENBR (BERGEN/FLESLAND , NO) observed 1820 UTC 18 March 2019
Temperature: 4.0°C (39°F)
Dewpoint: -1.0°C (30°F) [RH = 70%]
Pressure (altimeter): 29.94 inches Hg (1014.0 mb)
Winds: from the NNW (340 degrees) at 13 MPH (11 knots; 5.7 m/s)
Visibility: 6 or more miles (10+ km)
Ceiling: at least 12,000 feet AGL
Clouds: few clouds at 4000 feet AGL
Weather: no significant weather observed at this time

METAR text: ENBR 181750Z 34014KT 9999 FEW025 05/M02 Q1014 NOSIG RMK WIND 1200FT 34022KT
Conditions at: ENBR (BERGEN/FLESLAND , NO) observed 1750 UTC 18 March 2019
Temperature: 5.0°C (41°F)
Dewpoint: -2.0°C (28°F) [RH = 60%]
Pressure (altimeter): 29.94 inches Hg (1014.0 mb)
Winds: from the NNW (340 degrees) at 16 MPH (14 knots; 7.2 m/s)
Visibility: 6 or more miles (10+ km)
Ceiling: at least 12,000 feet AGL
Clouds: few clouds at 2500 feet AGL
Weather: no significant weather observed at this time

METAR text: ENBR 181720Z 34015KT 9999 FEW040 05/M02 Q1013 NOSIG RMK WIND 1200FT 34024KT
Conditions at: ENBR (BERGEN/FLESLAND , NO) observed 1720 UTC 18 March 2019
Temperature: 5.0°C (41°F)
Dewpoint: -2.0°C (28°F) [RH = 60%]
Pressure (altimeter): 29.91 inches Hg (1013.0 mb)
Winds: from the NNW (340 degrees) at 17 MPH (15 knots; 7.7 m/s)
Visibility: 6 or more miles (10+ km)
Ceiling: at least 12,000 feet AGL
Clouds: few clouds at 4000 feet AGL
Weather: no significant weather observed at this time

METAR text: ENBR 181650Z 34012KT 9999 FEW045 06/M03 Q1013 NOSIG RMK WIND 1200FT 34025KT
Conditions at: ENBR (BERGEN/FLESLAND , NO) observed 1650 UTC 18 March 2019
Temperature: 6.0°C (43°F)
Dewpoint: -3.0°C (27°F) [RH = 52%]
Pressure (altimeter): 29.91 inches Hg (1013.0 mb)
Winds: from the NNW (340 degrees) at 14 MPH (12 knots; 6.2 m/s)
Visibility: 6 or more miles (10+ km)
Ceiling: at least 12,000 feet AGL
Clouds: few clouds at 4500 feet AGL
Weather: no significant weather observed at this time

METAR text: ENBR 181620Z 33018KT 9999 FEW045 06/M04 Q1012 NOSIG RMK WIND 1200FT 34020KT
Conditions at: ENBR (BERGEN/FLESLAND , NO) observed 1620 UTC 18 March 2019
Temperature: 6.0°C (43°F)
Dewpoint: -4.0°C (25°F) [RH = 49%]
Pressure (altimeter): 29.88 inches Hg (1012.0 mb)
Winds: from the NNW (330 degrees) at 21 MPH (18 knots; 9.3 m/s)
Visibility: 6 or more miles (10+ km)
Ceiling: at least 12,000 feet AGL
Clouds: few clouds at 4500 feet AGL
Weather: no significant weather observed at this time

METAR text: ENBR 181550Z 33017KT 9999 FEW045 06/M04 Q1011 NOSIG RMK WIND 1200FT 34022KT
Conditions at: ENBR (BERGEN/FLESLAND , NO) observed 1550 UTC 18 March 2019
Temperature: 6.0°C (43°F)
Dewpoint: -4.0°C (25°F) [RH = 49%]
Pressure (altimeter): 29.85 inches Hg (1011.0 mb)
Winds: from the NNW (330 degrees) at 20 MPH (17 knots; 8.7 m/s)
Visibility: 6 or more miles (10+ km)
Ceiling: at least 12,000 feet AGL
Clouds: few clouds at 4500 feet AGL
Weather: no significant weather observed at this time

Forecast for: ENBR (BERGEN/FLESLAND , NO)
Text: TAF ENBR 2000/2024 18015KT 3000 RADZ BR BKN004
Forecast period: 0000 UTC 20 March 2019 to 0000 UTC 21 March 2019
Forecast type: FROM: standard forecast or significant change
Winds: from the S (180 degrees) at 17 MPH (15 knots; 7.7 m/s)
Visibility: 1.86 miles (2.99 km)
Ceiling: 400 feet AGL
Clouds: broken clouds at 400 feet AGL
Weather: RA DZ BR  (moderate rain, moderate drizzle, mist)
Text: BECMG 2000/2002 26008KT 9999 -SHRA SCT018TCU
Forecast period: 0000 to 1600 UTC 20 March 2019
Forecast type: BECOMING: Conditions expected to become as follows by 0200 UTC 20 March 2019
Winds: from the W (260 degrees) at 9 MPH (8 knots; 4.1 m/s)
Visibility: 6 or more miles 10+ km)
Ceiling: at least 12,000 feet AGL
Clouds: scattered clouds at 1800 feet AGL
Weather: -SHRA  (light rain showers)
Text: PROB30
Forecast period: 0300 to 1500 UTC 20 March 2019
Forecast type: TEMPORARY: The following changes expected for less than half the time period
Visibility: missing
Ceiling: 1800 feet AGL
Clouds: broken clouds at 1800 feet AGL
Weather: SHRA  (rain showers)
Text: TEMPO 2003/2015 SHRA BKN018CB
Forecast period: 1600 to 2100 UTC 20 March 2019
Forecast type: BECOMING: Conditions expected to become as follows by 1800 UTC 20 March 2019
Winds: from the S (180 degrees) at 14 MPH (12 knots; 6.2 m/s)
Visibility: 6 or more miles 10+ km)
Ceiling: at least 12,000 feet AGL
Clouds: scattered clouds at 1800 feet AGL
Weather: -SHRA  (light rain showers)
Text: BECMG 2016/2018 18012KT
Forecast period: 2100 UTC 20 March 2019 to 0000 UTC 21 March 2019
Forecast type: BECOMING: Conditions expected to become as follows by 0000 UTC 21 March 2019
Winds: from the S (180 degrees) at 21 MPH (18 knots; 9.3 m/s)
gusting to 32 MPH (28 knots; 14.4 m/s)
Visibility: 2.49 miles (4.01 km)
Ceiling: 600 feet AGL
Clouds: broken clouds at 600 feet AGL
Weather: RA DZ BR  (moderate rain, moderate drizzle, mist)